Time;durP1;ratioP1;P1;durP2;ratioP2;P2;SDS_P1;SDS_P2;PMS_P1;PMS_P2;Temp;Humidity;BMP_temperature;BMP_pressure;BME280_temperature;BME280_humidity;BME280_pressure;Samples;Min_cycle;Max_cycle;Signal;HPM_P1;HPM_P2
2021/12/14 00:02:23;;;;;;;5.30;1.80;;;6.60;99.90;;;;;;5092481;28;20489;-62
2021/12/14 00:04:55;;;;;;;4.10;1.83;;;6.60;99.90;;;;;;5092658;28;20728;-62
2021/12/14 00:07:30;;;;;;;4.57;2.13;;;6.60;99.90;;;;;;5095023;28;20449;-63
2021/12/14 00:10:11;;;;;;;5.30;1.60;;;6.60;99.90;;;;;;5094945;28;20498;-62
2021/12/14 00:12:53;;;;;;;6.17;2.67;;;6.60;99.90;;;;;;5095521;28;20450;-62
2021/12/14 00:15:21;;;;;;;7.10;1.97;;;6.60;99.90;;;;;;5094778;28;20552;-62
2021/12/14 00:17:55;;;;;;;3.50;1.40;;;6.60;99.90;;;;;;5095894;28;20446;-62
2021/12/14 00:20:41;;;;;;;5.20;1.70;;;6.60;99.90;;;;;;5096146;28;20457;-61
2021/12/14 00:26:01;;;;;;;3.33;1.37;;;6.60;99.90;;;;;;5094672;28;20433;-61
2021/12/14 00:28:30;;;;;;;3.43;1.33;;;6.50;99.90;;;;;;5090281;28;20481;-61
2021/12/14 00:31:14;;;;;;;7.00;2.17;;;6.60;99.90;;;;;;5096171;28;20548;-64
2021/12/14 00:33:42;;;;;;;3.67;1.40;;;6.50;99.90;;;;;;5095476;28;20536;-64
2021/12/14 00:36:19;;;;;;;9.40;2.83;;;6.50;99.90;;;;;;5096154;28;20461;-62
2021/12/14 00:38:51;;;;;;;6.57;1.80;;;6.50;99.90;;;;;;5096151;28;20484;-62
2021/12/14 00:41:22;;;;;;;9.30;2.50;;;6.50;99.90;;;;;;5096181;28;20460;-62
2021/12/14 00:43:49;;;;;;;4.77;1.17;;;6.50;99.90;;;;;;5096007;28;20964;-62
2021/12/14 00:46:17;;;;;;;5.30;1.33;;;6.50;99.90;;;;;;5096125;28;20497;-62
2021/12/14 00:48:45;;;;;;;5.73;1.57;;;6.50;99.90;;;;;;5094822;28;20492;-63
2021/12/14 00:51:14;;;;;;;4.67;1.60;;;6.40;99.90;;;;;;5095262;28;20507;-62
2021/12/14 00:53:41;;;;;;;2.87;1.60;;;6.40;99.90;;;;;;5095569;28;20537;-62
2021/12/14 00:56:11;;;;;;;12.20;1.50;;;6.40;99.90;;;;;;5094722;28;20595;-62
2021/12/14 00:58:38;;;;;;;8.47;1.30;;;6.40;99.90;;;;;;5093317;28;20821;-62
2021/12/14 01:01:09;;;;;;;10.73;2.23;;;6.40;99.90;;;;;;5093055;28;20500;-62
2021/12/14 01:03:39;;;;;;;5.40;1.27;;;6.50;99.90;;;;;;5092737;28;20446;-62
2021/12/14 01:06:10;;;;;;;3.17;1.00;;;6.50;99.90;;;;;;5093340;28;21087;-61
2021/12/14 01:08:43;;;;;;;3.50;1.20;;;6.50;99.90;;;;;;5093938;28;20573;-60
2021/12/14 01:11:15;;;;;;;8.30;1.90;;;6.40;99.90;;;;;;5092929;28;20502;-63
2021/12/14 01:13:51;;;;;;;4.33;1.50;;;6.50;99.90;;;;;;5095094;28;20530;-63
2021/12/14 01:16:32;;;;;;;8.03;3.37;;;6.50;99.90;;;;;;5095272;28;20878;-63
2021/12/14 01:19:12;;;;;;;6.43;1.90;;;6.60;99.90;;;;;;5094821;28;20543;-63
2021/12/14 01:21:58;;;;;;;2.93;1.00;;;6.50;99.90;;;;;;5095555;28;20454;-61
2021/12/14 01:24:53;;;;;;;5.00;1.30;;;6.60;99.90;;;;;;5095967;28;20832;-61
2021/12/14 01:27:30;;;;;;;4.17;1.63;;;6.60;99.90;;;;;;5096245;28;20441;-61
2021/12/14 01:30:01;;;;;;;8.13;1.97;;;6.60;99.90;;;;;;5095772;28;20481;-61
2021/12/14 01:32:30;;;;;;;2.33;1.13;;;6.50;99.90;;;;;;5095466;28;20454;-61
2021/12/14 01:34:57;;;;;;;5.63;1.80;;;6.50;99.90;;;;;;5095332;28;20468;-61
2021/12/14 01:37:28;;;;;;;3.77;1.10;;;6.50;99.90;;;;;;5096835;28;20566;-61
2021/12/14 01:40:05;;;;;;;2.47;1.00;;;6.40;99.90;;;;;;5081176;28;20514;-61
2021/12/14 01:42:36;;;;;;;6.60;1.40;;;6.40;99.90;;;;;;5079354;28;20745;-61
2021/12/14 01:45:10;;;;;;;4.20;1.00;;;6.40;99.90;;;;;;5078909;28;20554;-61
2021/12/14 01:47:40;;;;;;;4.27;1.20;;;6.40;99.90;;;;;;5077637;28;20532;-61
2021/12/14 01:50:11;;;;;;;4.80;1.17;;;6.40;99.90;;;;;;5077285;28;20517;-61
2021/12/14 01:52:39;;;;;;;5.20;1.57;;;6.40;99.90;;;;;;5076411;28;20893;-61
2021/12/14 01:55:12;;;;;;;4.53;1.37;;;6.40;99.90;;;;;;5075778;28;20546;-61
2021/12/14 01:57:39;;;;;;;3.03;1.27;;;6.30;99.90;;;;;;5075654;28;20541;-62
2021/12/14 02:00:11;;;;;;;4.33;1.70;;;6.30;99.90;;;;;;5076422;28;20544;-61
2021/12/14 02:02:42;;;;;;;4.47;1.83;;;6.30;99.90;;;;;;5077401;28;20493;-61
2021/12/14 02:05:17;;;;;;;4.03;1.10;;;6.30;99.90;;;;;;5077724;28;20458;-62
2021/12/14 02:07:44;;;;;;;5.40;1.40;;;6.30;99.90;;;;;;5078321;28;20485;-62
2021/12/14 02:10:19;;;;;;;2.00;1.03;;;6.30;99.90;;;;;;5077779;28;20580;-62
2021/12/14 02:12:46;;;;;;;7.00;1.10;;;6.30;99.90;;;;;;5077462;28;20529;-62
2021/12/14 02:15:17;;;;;;;3.97;1.33;;;6.20;99.90;;;;;;5078133;28;20558;-62
2021/12/14 02:17:45;;;;;;;3.50;1.60;;;6.30;99.90;;;;;;5077712;28;20533;-62
2021/12/14 02:20:15;;;;;;;5.20;1.03;;;6.30;99.90;;;;;;5077688;28;20866;-61
2021/12/14 02:22:44;;;;;;;6.60;1.10;;;6.20;99.90;;;;;;5077683;28;20805;-62
2021/12/14 02:25:13;;;;;;;6.90;1.40;;;6.20;99.90;;;;;;5077622;28;20455;-62
2021/12/14 02:27:43;;;;;;;5.20;1.10;;;6.20;99.90;;;;;;5077624;28;20537;-62
2021/12/14 02:30:14;;;;;;;6.37;1.23;;;6.30;99.90;;;;;;5076748;28;20585;-62
2021/12/14 02:32:41;;;;;;;4.00;1.20;;;6.30;99.90;;;;;;5076776;28;20488;-62
2021/12/14 02:35:12;;;;;;;4.60;1.40;;;6.30;99.90;;;;;;5077464;28;20941;-62
2021/12/14 02:37:47;;;;;;;5.93;1.40;;;6.30;99.90;;;;;;5077904;28;20494;-62
2021/12/14 02:40:20;;;;;;;5.33;1.40;;;6.20;99.90;;;;;;5071389;28;20532;-62
2021/12/14 02:42:50;;;;;;;4.97;1.10;;;6.20;99.90;;;;;;5078286;28;20496;-62
2021/12/14 02:45:20;;;;;;;3.30;1.10;;;6.20;99.90;;;;;;5078253;28;20497;-62
2021/12/14 02:47:47;;;;;;;5.60;1.40;;;6.20;99.90;;;;;;5077988;28;20510;-62
2021/12/14 02:50:14;;;;;;;3.60;2.33;;;6.20;99.90;;;;;;5077809;28;20576;-62
2021/12/14 02:52:43;;;;;;;4.53;1.20;;;6.10;99.90;;;;;;5077969;28;20507;-62
2021/12/14 02:55:17;;;;;;;4.43;1.13;;;6.10;99.90;;;;;;5077712;28;20458;-62
2021/12/14 02:57:50;;;;;;;3.30;1.57;;;6.10;99.90;;;;;;5077913;28;20448;-62
2021/12/14 03:00:20;;;;;;;8.53;1.73;;;6.10;99.90;;;;;;5077869;28;20553;-62
2021/12/14 03:02:47;;;;;;;7.60;1.10;;;6.10;99.90;;;;;;5078016;28;20482;-61
2021/12/14 03:05:20;;;;;;;2.53;1.40;;;6.10;99.90;;;;;;5077988;28;20494;-63
2021/12/14 03:07:53;;;;;;;2.40;1.00;;;6.00;99.90;;;;;;5077174;28;20446;-61
2021/12/14 03:10:35;;;;;;;5.83;1.20;;;6.10;99.90;;;;;;5077443;28;20575;-62
2021/12/14 03:13:06;;;;;;;4.53;1.20;;;6.10;99.90;;;;;;5077490;28;20747;-61
2021/12/14 03:15:41;;;;;;;4.90;1.17;;;6.10;99.90;;;;;;5077158;28;20485;-61
2021/12/14 03:18:11;;;;;;;5.57;1.17;;;6.10;99.90;;;;;;5077661;28;20446;-62
2021/12/14 03:20:45;;;;;;;2.60;1.63;;;6.10;99.90;;;;;;5077595;28;20945;-61
2021/12/14 03:23:17;;;;;;;6.13;1.10;;;6.10;99.90;;;;;;5077177;28;20877;-61
2021/12/14 03:25:47;;;;;;;2.83;1.37;;;6.10;99.90;;;;;;5077325;28;20909;-61
2021/12/14 03:28:16;;;;;;;5.20;1.50;;;6.00;99.90;;;;;;5077552;28;20690;-61
2021/12/14 03:30:51;;;;;;;3.00;0.97;;;6.10;99.90;;;;;;5076460;28;20828;-61
2021/12/14 03:33:28;;;;;;;8.60;1.10;;;6.00;99.90;;;;;;5076798;28;20537;-62
2021/12/14 03:35:58;;;;;;;6.97;1.23;;;6.00;99.90;;;;;;5076944;28;20454;-62
2021/12/14 03:38:30;;;;;;;6.73;1.33;;;6.00;99.90;;;;;;5082148;28;20970;-62
2021/12/14 03:41:01;;;;;;;2.27;1.30;;;6.00;99.90;;;;;;5097569;28;20477;-62
2021/12/14 03:43:29;;;;;;;5.37;1.30;;;6.00;99.90;;;;;;5097201;28;20446;-61
2021/12/14 03:45:57;;;;;;;2.20;1.30;;;6.00;99.90;;;;;;5094869;28;20548;-61
2021/12/14 03:48:27;;;;;;;4.50;2.30;;;6.10;99.90;;;;;;5095478;28;20827;-62
2021/12/14 03:50:54;;;;;;;4.10;2.23;;;6.10;99.90;;;;;;5094992;28;20584;-61
2021/12/14 03:53:25;;;;;;;3.90;1.43;;;6.10;99.90;;;;;;5095220;28;20506;-62
2021/12/14 03:55:57;;;;;;;5.67;1.20;;;6.10;99.90;;;;;;5095244;28;20450;-62
2021/12/14 03:58:30;;;;;;;6.90;0.93;;;6.10;99.90;;;;;;5094977;28;20535;-62
2021/12/14 04:01:00;;;;;;;1.87;1.27;;;6.20;99.90;;;;;;5094169;28;20457;-62
2021/12/14 04:03:29;;;;;;;2.50;1.20;;;6.20;99.90;;;;;;5094832;28;20540;-62
2021/12/14 04:05:57;;;;;;;3.47;0.67;;;6.20;99.90;;;;;;5095245;28;20540;-62
2021/12/14 04:08:25;;;;;;;3.30;1.20;;;6.20;99.90;;;;;;5094902;28;20512;-61
2021/12/14 04:10:56;;;;;;;2.87;1.00;;;6.30;99.90;;;;;;5095276;28;20535;-62
2021/12/14 04:13:26;;;;;;;2.07;1.00;;;6.20;99.90;;;;;;5095390;28;20481;-62
2021/12/14 04:15:53;;;;;;;4.87;1.00;;;6.20;99.90;;;;;;5096240;28;20459;-61
2021/12/14 04:18:20;;;;;;;1.20;0.70;;;6.10;99.90;;;;;;5096192;28;20452;-61
2021/12/14 04:20:50;;;;;;;3.93;0.80;;;6.00;99.90;;;;;;5095505;28;20485;-61
2021/12/14 04:23:22;;;;;;;2.20;0.70;;;6.00;99.90;;;;;;5096068;28;20450;-61
2021/12/14 04:25:50;;;;;;;1.63;0.60;;;6.00;99.90;;;;;;5096806;28;20454;-62
2021/12/14 04:28:22;;;;;;;2.87;0.83;;;5.90;99.90;;;;;;5095055;28;20541;-61
2021/12/14 04:30:49;;;;;;;2.63;0.93;;;5.80;99.90;;;;;;5095638;28;20579;-61
2021/12/14 04:33:27;;;;;;;3.13;0.67;;;5.70;99.90;;;;;;5095800;28;20518;-62
2021/12/14 04:35:55;;;;;;;1.97;0.57;;;5.80;99.90;;;;;;5096302;28;20816;-61
2021/12/14 04:38:28;;;;;;;1.53;0.70;;;5.80;99.90;;;;;;5095816;28;20512;-61
2021/12/14 04:52:23;;;;;;;2.00;0.50;;;5.70;99.90;;;;;;5034175;28;20619;-61
2021/12/14 04:54:57;;;;;;;1.00;0.60;;;5.70;99.90;;;;;;5083377;28;20528;-60
2021/12/14 04:57:27;;;;;;;1.40;0.63;;;5.70;99.90;;;;;;5095452;28;20484;-61
2021/12/14 04:59:58;;;;;;;2.23;0.60;;;5.60;99.90;;;;;;5094986;28;20524;-61
2021/12/14 05:02:29;;;;;;;2.67;0.63;;;5.50;99.90;;;;;;5095145;28;20532;-61
2021/12/14 05:05:00;;;;;;;4.10;0.77;;;5.60;99.90;;;;;;5096151;28;20528;-60
2021/12/14 05:07:46;;;;;;;1.03;0.57;;;5.50;99.90;;;;;;5095651;28;20473;-61
2021/12/14 05:10:17;;;;;;;2.30;0.70;;;5.50;99.90;;;;;;5095159;28;20485;-60
2021/12/14 05:12:45;;;;;;;1.07;0.60;;;5.40;99.90;;;;;;5098973;28;20726;-61
2021/12/14 05:15:16;;;;;;;1.90;0.70;;;5.40;99.90;;;;;;5099770;28;20493;-60
2021/12/14 05:17:45;;;;;;;2.00;0.60;;;5.40;99.90;;;;;;5099219;28;20840;-61
2021/12/14 05:20:14;;;;;;;1.33;0.70;;;5.40;99.90;;;;;;5099543;28;20556;-61
2021/12/14 05:22:44;;;;;;;1.00;0.60;;;5.30;99.90;;;;;;5098880;28;20819;-60
2021/12/14 05:25:16;;;;;;;1.60;0.70;;;5.30;99.90;;;;;;5099627;28;20464;-60
2021/12/14 05:27:47;;;;;;;2.20;0.70;;;5.30;99.90;;;;;;5099738;28;20545;-63
2021/12/14 05:30:21;;;;;;;1.70;0.60;;;5.40;99.90;;;;;;5099548;28;20574;-61
2021/12/14 05:32:49;;;;;;;1.10;0.60;;;5.40;99.90;;;;;;5099400;28;20453;-61
2021/12/14 05:35:20;;;;;;;1.47;0.50;;;5.50;99.90;;;;;;5099441;28;20800;-61
2021/12/14 05:37:51;;;;;;;2.77;0.80;;;5.50;99.90;;;;;;5098498;28;20452;-61
2021/12/14 05:40:40;;;;;;;2.07;0.63;;;5.60;99.90;;;;;;5099124;28;20449;-61
2021/12/14 05:43:08;;;;;;;2.40;0.43;;;5.60;99.90;;;;;;5099474;28;20456;-62
2021/12/14 05:45:41;;;;;;;0.83;0.43;;;5.60;99.90;;;;;;5099418;28;20451;-62
2021/12/14 05:48:10;;;;;;;1.13;0.50;;;5.80;99.90;;;;;;5098872;28;20566;-62
2021/12/14 05:50:40;;;;;;;1.70;0.70;;;5.80;99.90;;;;;;5097927;28;20580;-59
2021/12/14 05:53:10;;;;;;;1.47;0.50;;;5.70;99.90;;;;;;5115965;28;20468;-61
2021/12/14 05:55:42;;;;;;;1.40;0.60;;;5.70;99.90;;;;;;5117053;28;20590;-61
2021/12/14 05:58:13;;;;;;;1.97;0.77;;;5.60;99.90;;;;;;5118065;28;20440;-61
2021/12/14 06:00:45;;;;;;;2.22;0.50;;;5.50;99.90;;;;;;5118431;28;20832;-61
2021/12/14 06:03:18;;;;;;;1.20;0.70;;;5.60;99.90;;;;;;5118608;28;20309;-61
2021/12/14 06:05:45;;;;;;;1.50;0.50;;;5.40;99.90;;;;;;5118306;28;20453;-61
2021/12/14 06:08:20;;;;;;;1.00;0.43;;;5.30;99.90;;;;;;5117436;28;20487;-61
2021/12/14 06:10:47;;;;;;;1.93;0.50;;;5.40;99.90;;;;;;5117162;28;20486;-64
2021/12/14 06:13:17;;;;;;;1.07;0.57;;;5.40;99.90;;;;;;5116929;28;20437;-61
2021/12/14 06:15:45;;;;;;;0.87;0.50;;;5.40;99.90;;;;;;5117152;28;20457;-61
2021/12/14 06:18:14;;;;;;;1.63;0.60;;;5.40;99.90;;;;;;5118036;28;20952;-60
2021/12/14 06:20:44;;;;;;;1.37;0.53;;;5.50;99.90;;;;;;5117343;28;20904;-60
2021/12/14 06:23:12;;;;;;;1.60;0.70;;;5.80;99.90;;;;;;5115119;28;20895;-60
2021/12/14 06:25:40;;;;;;;1.43;0.50;;;5.80;99.90;;;;;;5116623;28;20934;-61
2021/12/14 06:28:07;;;;;;;1.20;0.60;;;6.10;99.90;;;;;;5114533;28;20914;-61
2021/12/14 06:30:41;;;;;;;1.43;0.70;;;5.80;99.90;;;;;;5115476;28;20723;-61
2021/12/14 06:33:11;;;;;;;1.97;0.60;;;5.70;99.90;;;;;;5115621;28;20502;-61
2021/12/14 06:35:41;;;;;;;0.90;0.70;;;5.40;99.90;;;;;;5114746;28;20488;-61
2021/12/14 06:38:28;;;;;;;2.13;0.87;;;5.20;99.90;;;;;;5113888;28;20483;-61
2021/12/14 06:41:05;;;;;;;2.60;0.70;;;5.10;99.90;;;;;;5112415;28;20467;-61
2021/12/14 06:43:35;;;;;;;1.20;0.60;;;5.10;99.90;;;;;;5112188;28;20543;-63
2021/12/14 06:46:05;;;;;;;1.30;0.60;;;5.00;99.90;;;;;;5112089;28;20810;-62
2021/12/14 06:48:38;;;;;;;2.97;0.53;;;5.00;99.90;;;;;;5110529;28;20938;-62
2021/12/14 06:51:11;;;;;;;1.33;0.40;;;5.00;99.90;;;;;;5111089;28;20957;-61
2021/12/14 06:53:40;;;;;;;1.07;0.60;;;4.90;99.90;;;;;;5093375;28;20724;-61
2021/12/14 06:56:11;;;;;;;0.97;0.60;;;4.90;99.90;;;;;;5091981;28;20872;-61
2021/12/14 06:58:47;;;;;;;1.73;0.70;;;4.90;99.90;;;;;;5094418;28;20416;-62
2021/12/14 07:01:17;;;;;;;2.30;0.60;;;4.90;99.90;;;;;;5114553;28;20769;-61
2021/12/14 07:03:48;;;;;;;2.17;0.60;;;4.90;99.90;;;;;;5115202;28;20870;-61
2021/12/14 07:06:24;;;;;;;1.43;0.70;;;4.90;99.90;;;;;;5097522;28;20449;-61
2021/12/14 07:08:51;;;;;;;1.60;0.67;;;4.80;99.90;;;;;;5115764;28;20519;-61
2021/12/14 07:11:20;;;;;;;1.40;0.90;;;4.90;99.90;;;;;;5106908;28;20564;-61
2021/12/14 07:13:48;;;;;;;1.60;0.70;;;5.00;99.90;;;;;;5101558;28;20846;-61
2021/12/14 07:16:22;;;;;;;2.87;1.00;;;5.00;99.90;;;;;;5094068;28;20477;-61
2021/12/14 07:18:54;;;;;;;1.87;0.60;;;5.00;99.90;;;;;;5093203;28;20506;-62
2021/12/14 07:21:37;;;;;;;1.50;0.70;;;5.00;99.90;;;;;;5093126;28;20737;-62
2021/12/14 07:24:32;;;;;;;2.57;0.70;;;5.00;99.90;;;;;;5091325;28;20440;-62
2021/12/14 07:27:20;;;;;;;1.40;0.80;;;5.00;99.90;;;;;;5091585;28;20777;-61
2021/12/14 07:29:51;;;;;;;2.13;0.80;;;5.00;99.90;;;;;;5093155;28;20463;-62
2021/12/14 07:32:39;;;;;;;1.80;0.97;;;4.90;99.90;;;;;;5092771;28;20505;-61
2021/12/14 07:35:25;;;;;;;2.90;0.80;;;4.90;99.90;;;;;;5091766;28;20815;-61
2021/12/14 07:37:53;;;;;;;2.70;0.70;;;5.00;99.90;;;;;;5092777;28;20876;-62
2021/12/14 07:40:21;;;;;;;1.20;0.70;;;5.00;99.90;;;;;;5112626;28;20891;-62
2021/12/14 07:43:03;;;;;;;2.13;0.67;;;4.90;99.90;;;;;;5111591;28;20492;-61
2021/12/14 07:45:33;;;;;;;2.00;0.73;;;5.10;99.90;;;;;;5113754;28;20961;-61
2021/12/14 07:48:00;;;;;;;1.47;0.60;;;5.40;99.90;;;;;;5105171;28;20481;-62
2021/12/14 07:50:46;;;;;;;2.67;0.90;;;5.40;99.90;;;;;;5093262;28;20520;-61
2021/12/14 07:53:31;;;;;;;1.63;0.90;;;5.80;99.90;;;;;;5089832;28;20496;-61
2021/12/14 07:55:59;;;;;;;1.20;0.70;;;5.50;99.90;;;;;;5091221;28;20457;-61
2021/12/14 07:58:35;;;;;;;1.20;0.70;;;5.40;99.90;;;;;;5092699;28;20540;-62
2021/12/14 08:01:03;;;;;;;2.03;1.00;;;5.40;99.90;;;;;;5090038;28;20449;-64
2021/12/14 08:03:33;;;;;;;2.33;0.85;;;5.30;99.90;;;;;;5090857;28;20515;-63
2021/12/14 08:06:04;;;;;;;1.43;0.80;;;5.20;99.90;;;;;;5094193;28;20196;-64
2021/12/14 08:08:41;;;;;;;3.33;1.00;;;5.00;99.90;;;;;;5104531;28;20469;-64
2021/12/14 08:11:40;;;;;;;5.00;1.00;;;5.00;99.90;;;;;;5112085;28;20506;-64
2021/12/14 08:14:12;;;;;;;1.50;0.70;;;5.00;99.90;;;;;;5114732;28;20506;-64
2021/12/14 08:16:42;;;;;;;3.13;0.77;;;5.10;99.90;;;;;;5112644;28;20747;-64
2021/12/14 08:19:14;;;;;;;1.27;0.90;;;5.30;99.90;;;;;;5112240;28;20523;-64
2021/12/14 08:21:45;;;;;;;2.20;0.77;;;5.40;99.90;;;;;;5113148;28;20536;-63
2021/12/14 08:24:12;;;;;;;4.77;0.83;;;5.30;99.90;;;;;;5113772;28;20494;-64
2021/12/14 08:26:41;;;;;;;2.80;0.77;;;5.40;99.90;;;;;;5114134;28;20609;-64
2021/12/14 08:29:15;;;;;;;1.30;0.70;;;5.40;99.90;;;;;;5114473;28;20480;-63
2021/12/14 08:31:45;;;;;;;1.00;0.50;;;5.40;99.90;;;;;;5112615;28;20542;-63
2021/12/14 08:34:20;;;;;;;2.40;1.00;;;5.50;99.90;;;;;;5114362;28;20456;-62
2021/12/14 08:36:51;;;;;;;1.70;0.80;;;5.70;99.90;;;;;;5113796;28;20448;-62
2021/12/14 08:39:22;;;;;;;4.47;1.03;;;6.10;99.90;;;;;;5113180;28;20484;-62
2021/12/14 08:41:56;;;;;;;2.23;0.80;;;6.40;99.90;;;;;;5111960;28;20445;-61
2021/12/14 08:44:34;;;;;;;1.70;0.90;;;6.30;99.90;;;;;;5110067;28;20453;-61
2021/12/14 08:47:02;;;;;;;1.20;0.50;;;6.20;99.90;;;;;;5108119;28;20436;-62
2021/12/14 08:49:29;;;;;;;1.90;0.83;;;6.10;99.90;;;;;;5110775;28;20471;-63
2021/12/14 08:51:58;;;;;;;3.40;0.80;;;6.00;99.90;;;;;;5111402;28;20846;-63
2021/12/14 08:54:29;;;;;;;1.30;0.70;;;6.20;99.90;;;;;;5109107;28;20527;-61
2021/12/14 08:57:02;;;;;;;1.30;0.60;;;6.40;99.90;;;;;;5111384;28;20456;-61
2021/12/14 08:59:30;;;;;;;2.10;0.73;;;6.60;99.90;;;;;;5110937;28;20831;-60
2021/12/14 09:01:58;;;;;;;0.83;0.53;;;6.80;99.90;;;;;;5110596;28;20481;-61
2021/12/14 09:04:30;;;;;;;2.60;0.80;;;7.30;99.90;;;;;;5108965;28;20440;-62
2021/12/14 09:07:05;;;;;;;1.20;0.70;;;7.60;99.90;;;;;;5106705;28;20474;-62
2021/12/14 09:09:31;;;;;;;1.53;0.60;;;7.40;99.90;;;;;;5111156;28;20531;-62
2021/12/14 09:12:02;;;;;;;1.30;0.60;;;7.80;99.90;;;;;;5109750;28;20579;-62
2021/12/14 09:14:34;;;;;;;0.87;0.57;;;8.00;99.90;;;;;;5107708;28;20538;-62
2021/12/14 09:17:07;;;;;;;2.43;0.70;;;8.10;99.90;;;;;;5106870;28;20436;-62
2021/12/14 09:19:37;;;;;;;1.30;0.60;;;8.00;99.90;;;;;;5108717;28;20532;-62
2021/12/14 09:22:10;;;;;;;2.07;0.90;;;7.70;99.90;;;;;;5110652;28;20528;-63
2021/12/14 09:24:40;;;;;;;1.03;0.70;;;7.50;99.90;;;;;;5109751;28;20485;-61
2021/12/14 09:27:12;;;;;;;1.60;0.70;;;7.70;99.90;;;;;;5111729;28;20462;-62
2021/12/14 09:29:45;;;;;;;1.07;0.60;;;7.80;99.90;;;;;;5091634;28;20712;-61
2021/12/14 09:32:17;;;;;;;1.20;0.70;;;8.10;99.90;;;;;;5097127;28;20512;-62
2021/12/14 09:34:45;;;;;;;1.53;0.63;;;8.40;99.90;;;;;;5110285;28;20445;-62
2021/12/14 09:37:15;;;;;;;0.73;0.40;;;8.40;99.90;;;;;;5110109;28;20528;-63
2021/12/14 09:39:44;;;;;;;1.30;0.80;;;8.60;99.90;;;;;;5111080;28;20556;-62
2021/12/14 09:42:14;;;;;;;1.30;0.70;;;8.60;99.90;;;;;;5111051;28;20479;-62
2021/12/14 09:44:41;;;;;;;0.97;0.53;;;8.10;99.90;;;;;;5112695;28;20444;-63
2021/12/14 09:47:13;;;;;;;1.50;0.60;;;7.80;99.90;;;;;;5112117;28;20811;-63
2021/12/14 09:49:42;;;;;;;0.87;0.40;;;7.50;99.90;;;;;;5103037;28;20447;-63
2021/12/14 09:52:14;;;;;;;0.90;0.50;;;7.90;99.90;;;;;;5112640;28;20931;-64
2021/12/14 09:54:46;;;;;;;1.17;0.60;;;8.40;99.90;;;;;;5113138;28;20468;-63
2021/12/14 09:57:21;;;;;;;1.00;0.50;;;8.60;99.90;;;;;;5112556;28;20860;-64
2021/12/14 09:59:49;;;;;;;1.10;0.53;;;8.60;99.90;;;;;;5115608;28;20491;-64
2021/12/14 10:02:21;;;;;;;1.03;0.60;;;8.90;99.90;;;;;;5116751;28;20515;-63
2021/12/14 10:04:52;;;;;;;0.60;0.40;;;9.10;99.90;;;;;;5106420;28;20465;-61
2021/12/14 10:07:23;;;;;;;1.40;0.50;;;9.40;99.90;;;;;;5113303;28;20540;-61
2021/12/14 10:09:54;;;;;;;0.67;0.50;;;9.30;99.90;;;;;;5111381;28;20468;-61
2021/12/14 10:15:15;;;;;;;0.90;0.50;;;8.50;99.90;;;;;;5117935;27;21035;-61
2021/12/14 10:17:43;;;;;;;1.00;0.40;;;8.10;99.90;;;;;;5118561;27;20539;-61
2021/12/14 10:20:15;;;;;;;0.50;0.30;;;8.10;99.90;;;;;;5126767;27;20986;-60
2021/12/14 10:22:42;;;;;;;0.83;0.50;;;8.00;99.90;;;;;;5095765;28;20531;-64
2021/12/14 10:25:17;;;;;;;0.70;0.50;;;7.90;99.90;;;;;;5110437;28;20822;-60
2021/12/14 10:27:46;;;;;;;1.27;0.80;;;8.20;99.90;;;;;;5104361;28;20428;-61
2021/12/14 10:30:17;;;;;;;4.03;0.70;;;8.40;99.90;;;;;;5111024;28;20513;-60
2021/12/14 10:32:44;;;;;;;1.80;0.87;;;8.40;99.90;;;;;;5108896;28;21054;-61
2021/12/14 10:35:29;;;;;;;1.00;0.60;;;8.70;99.90;;;;;;5111597;28;21081;-63
2021/12/14 10:38:10;;;;;;;2.00;0.80;;;8.70;99.90;;;;;;5111263;28;20480;-62
2021/12/14 10:43:28;;;;;;;1.30;0.70;;;8.80;99.90;;;;;;5111289;28;20440;-63
2021/12/14 10:46:04;;;;;;;4.47;0.77;;;8.80;99.90;;;;;;5113404;28;20535;-62
2021/12/14 10:48:38;;;;;;;2.60;0.90;;;8.70;99.90;;;;;;5108225;28;20863;-62
2021/12/14 10:51:12;;;;;;;2.10;0.70;;;8.60;99.90;;;;;;5111115;28;20898;-61
2021/12/14 10:53:43;;;;;;;2.00;0.83;;;8.20;99.90;;;;;;5110981;28;20847;-62
2021/12/14 10:56:15;;;;;;;1.30;0.77;;;7.80;99.90;;;;;;5094831;28;20452;-61
2021/12/14 10:58:48;;;;;;;0.90;0.70;;;7.60;99.90;;;;;;5111370;28;20441;-62
2021/12/14 11:01:30;;;;;;;1.83;0.90;;;7.60;99.90;;;;;;5109370;28;20484;-61
2021/12/14 11:04:05;;;;;;;2.83;0.97;;;7.70;99.90;;;;;;5110730;28;20459;-62
2021/12/14 11:06:34;;;;;;;1.90;0.87;;;7.80;99.90;;;;;;5111550;28;20452;-61
2021/12/14 11:11:53;;;;;;;1.40;0.70;;;8.10;99.90;;;;;;5113188;28;20464;-62
2021/12/14 11:14:26;;;;;;;1.87;0.80;;;8.20;99.90;;;;;;5112648;28;20543;-62
2021/12/14 11:19:48;;;;;;;1.67;1.10;;;8.30;99.90;;;;;;5112229;28;20534;-62
2021/12/14 11:22:17;;;;;;;1.40;0.70;;;8.50;99.90;;;;;;5113194;28;20896;-62
2021/12/14 11:24:49;;;;;;;2.13;1.00;;;8.70;99.90;;;;;;5112511;28;20527;-61
2021/12/14 11:27:21;;;;;;;2.50;1.47;;;8.80;99.90;;;;;;5111514;28;20667;-62
2021/12/14 11:30:10;;;;;;;2.00;1.07;;;9.00;99.90;;;;;;5112567;28;20480;-62
2021/12/14 11:32:42;;;;;;;2.20;1.03;;;8.80;99.90;;;;;;5110851;28;20476;-62
2021/12/14 11:35:21;;;;;;;3.35;1.30;;;8.90;99.90;;;;;;5107373;28;20904;-63
2021/12/14 11:37:55;;;;;;;1.67;1.07;;;9.10;99.90;;;;;;5110518;28;20191;-62
2021/12/14 11:40:23;;;;;;;1.67;0.90;;;9.20;99.90;;;;;;5112945;28;20899;-63
2021/12/14 11:42:53;;;;;;;1.67;1.00;;;8.80;99.90;;;;;;5111878;28;20744;-62
2021/12/14 11:45:23;;;;;;;4.73;1.10;;;8.60;99.90;;;;;;5113303;28;20738;-62
2021/12/14 11:47:54;;;;;;;2.17;0.90;;;8.40;99.90;;;;;;5112563;28;20461;-63
2021/12/14 11:50:26;;;;;;;2.83;1.00;;;8.30;99.90;;;;;;5112878;28;20459;-62
2021/12/14 11:53:00;;;;;;;2.50;0.90;;;8.20;99.90;;;;;;5109189;28;21205;-62
2021/12/14 11:55:41;;;;;;;2.80;0.90;;;8.20;99.90;;;;;;5110394;28;20588;-63
2021/12/14 11:58:26;;;;;;;3.00;1.00;;;8.50;99.90;;;;;;5102104;28;20476;-61
2021/12/14 12:00:57;;;;;;;2.00;0.70;;;8.80;99.90;;;;;;5107710;28;20460;-62
2021/12/14 12:03:34;;;;;;;2.00;0.87;;;8.90;99.90;;;;;;5111226;28;20530;-63
2021/12/14 12:06:43;;;;;;;1.10;0.70;;;8.90;99.90;;;;;;5110718;28;20544;-62
2021/12/14 12:09:31;;;;;;;1.90;0.70;;;8.70;99.90;;;;;;5111926;28;20456;-61
2021/12/14 12:12:09;;;;;;;1.10;0.80;;;8.80;99.90;;;;;;5110709;28;20468;-61
2021/12/14 12:14:47;;;;;;;4.63;1.10;;;8.90;99.90;;;;;;5112115;28;20449;-60
2021/12/14 12:17:37;;;;;;;4.10;1.00;;;8.80;99.90;;;;;;5110563;28;20855;-61
2021/12/14 12:20:24;;;;;;;2.63;1.10;;;8.60;99.90;;;;;;5106434;28;20448;-61
2021/12/14 12:22:56;;;;;;;2.50;1.20;;;8.80;99.90;;;;;;5110956;28;20445;-62
2021/12/14 12:25:26;;;;;;;1.40;0.90;;;9.00;99.90;;;;;;5110233;28;20484;-62
2021/12/14 12:28:04;;;;;;;3.53;1.10;;;9.10;99.90;;;;;;5112847;28;20519;-65
2021/12/14 12:30:46;;;;;;;2.53;1.10;;;8.90;99.90;;;;;;5112541;28;20501;-62
2021/12/14 12:33:28;;;;;;;1.53;1.00;;;9.10;99.90;;;;;;5109214;28;20482;-61
2021/12/14 12:36:04;;;;;;;3.47;0.97;;;9.10;99.90;;;;;;5111897;28;20769;-62
2021/12/14 12:38:47;;;;;;;4.63;1.00;;;8.80;99.90;;;;;;5112233;28;20502;-62
2021/12/14 12:41:25;;;;;;;2.17;1.10;;;8.60;99.90;;;;;;5110996;28;20836;-62
2021/12/14 12:44:06;;;;;;;2.10;1.17;;;8.60;99.90;;;;;;5112714;28;20520;-62
2021/12/14 12:46:39;;;;;;;2.70;0.90;;;8.50;99.90;;;;;;5112436;28;20522;-61
2021/12/14 12:49:20;;;;;;;1.70;1.13;;;8.70;99.90;;;;;;5113515;28;20539;-62
2021/12/14 12:52:10;;;;;;;2.17;1.10;;;8.80;99.90;;;;;;5113634;28;20452;-62
2021/12/14 12:54:58;;;;;;;1.87;0.97;;;8.90;99.90;;;;;;5112839;28;20520;-61
2021/12/14 12:57:37;;;;;;;2.87;1.30;;;9.00;99.90;;;;;;5111223;28;20513;-62
2021/12/14 13:00:35;;;;;;;4.60;1.40;;;9.00;99.90;;;;;;5104344;28;20527;-61
2021/12/14 13:03:09;;;;;;;2.87;1.20;;;8.80;99.90;;;;;;5108088;28;20460;-63
2021/12/14 13:05:41;;;;;;;4.40;1.60;;;8.60;99.90;;;;;;5102107;28;20911;-62
2021/12/14 13:08:18;;;;;;;3.13;1.30;;;8.50;99.90;;;;;;5110000;28;20988;-62
2021/12/14 13:10:50;;;;;;;2.47;1.20;;;8.40;99.90;;;;;;5102979;28;20775;-61
2021/12/14 13:13:21;;;;;;;2.50;1.00;;;8.30;99.90;;;;;;5110039;28;20974;-62
2021/12/14 13:16:02;;;;;;;2.73;1.40;;;8.30;99.90;;;;;;5108106;28;20456;-62
2021/12/14 13:18:55;;;;;;;1.40;0.97;;;8.20;99.90;;;;;;5112609;28;20548;-62
2021/12/14 13:21:34;;;;;;;3.97;1.20;;;8.20;99.90;;;;;;5088687;28;20556;-61
2021/12/14 13:24:10;;;;;;;1.60;1.40;;;8.30;99.90;;;;;;5113737;28;20952;-62
2021/12/14 13:26:45;;;;;;;2.70;1.23;;;8.40;99.90;;;;;;5105218;28;20548;-62
2021/12/14 13:29:28;;;;;;;2.90;1.30;;;8.50;99.90;;;;;;5105842;28;20444;-62
2021/12/14 13:31:57;;;;;;;1.80;1.10;;;8.40;99.90;;;;;;5112013;28;20999;-62
2021/12/14 13:34:27;;;;;;;4.00;1.23;;;8.40;99.90;;;;;;5116369;28;20626;-62
2021/12/14 13:36:56;;;;;;;2.80;1.27;;;8.30;99.90;;;;;;5116372;28;20887;-63
2021/12/14 13:39:24;;;;;;;2.53;1.30;;;8.20;99.90;;;;;;5115970;28;20918;-62
2021/12/14 13:42:17;;;;;;;2.20;1.10;;;8.20;99.90;;;;;;5114996;28;20762;-62
2021/12/14 13:44:50;;;;;;;1.67;1.00;;;8.10;99.90;;;;;;5102720;28;20821;-62
2021/12/14 13:47:18;;;;;;;2.23;1.20;;;8.10;99.90;;;;;;5117376;28;20658;-63
2021/12/14 13:49:48;;;;;;;1.90;1.20;;;8.00;99.90;;;;;;5117720;28;20509;-61
2021/12/14 13:52:17;;;;;;;2.20;1.23;;;8.00;99.90;;;;;;5112001;28;20583;-63
2021/12/14 13:55:14;;;;;;;2.83;1.10;;;8.10;99.90;;;;;;5112848;28;20890;-61